sensor_id;sensor_type;location;lat;lon;timestamp;temperature;humidity
10123;DHT22;5101;49.038;8.710;2023-12-22T00:02:24;9.70;99.90
10123;DHT22;5101;49.038;8.710;2023-12-22T00:04:51;9.70;99.90
10123;DHT22;5101;49.038;8.710;2023-12-22T00:07:16;9.70;99.90
10123;DHT22;5101;49.038;8.710;2023-12-22T00:09:42;9.70;99.90
10123;DHT22;5101;49.038;8.710;2023-12-22T00:12:07;9.70;99.90
10123;DHT22;5101;49.038;8.710;2023-12-22T00:14:33;9.70;99.90
10123;DHT22;5101;49.038;8.710;2023-12-22T00:16:58;9.70;99.90
10123;DHT22;5101;49.038;8.710;2023-12-22T00:19:24;9.60;99.90
10123;DHT22;5101;49.038;8.710;2023-12-22T00:21:50;9.50;99.90
10123;DHT22;5101;49.038;8.710;2023-12-22T00:24:15;9.50;99.90
10123;DHT22;5101;49.038;8.710;2023-12-22T00:26:41;9.50;99.90
10123;DHT22;5101;49.038;8.710;2023-12-22T00:29:06;9.40;99.90
10123;DHT22;5101;49.038;8.710;2023-12-22T00:31:32;9.40;99.90
10123;DHT22;5101;49.038;8.710;2023-12-22T00:33:57;9.40;99.90
10123;DHT22;5101;49.038;8.710;2023-12-22T00:36:23;9.40;99.90
10123;DHT22;5101;49.038;8.710;2023-12-22T00:38:50;9.30;99.90
10123;DHT22;5101;49.038;8.710;2023-12-22T00:41:16;9.30;99.90
10123;DHT22;5101;49.038;8.710;2023-12-22T00:43:41;9.40;99.90
10123;DHT22;5101;49.038;8.710;2023-12-22T00:46:06;9.30;99.90
10123;DHT22;5101;49.038;8.710;2023-12-22T00:48:32;9.50;99.90
10123;DHT22;5101;49.038;8.710;2023-12-22T00:50:57;9.40;99.90
10123;DHT22;5101;49.038;8.710;2023-12-22T00:53:23;9.30;99.90
10123;DHT22;5101;49.038;8.710;2023-12-22T00:55:48;9.20;99.90
10123;DHT22;5101;49.038;8.710;2023-12-22T00:58:14;9.40;99.90
10123;DHT22;5101;49.038;8.710;2023-12-22T01:00:39;9.30;99.90
10123;DHT22;5101;49.038;8.710;2023-12-22T01:03:05;9.20;99.90
10123;DHT22;5101;49.038;8.710;2023-12-22T01:05:30;9.10;99.90
10123;DHT22;5101;49.038;8.710;2023-12-22T01:07:56;9.10;99.90
10123;DHT22;5101;49.038;8.710;2023-12-22T01:10:21;9.20;99.90
10123;DHT22;5101;49.038;8.710;2023-12-22T01:12:47;9.00;99.90
10123;DHT22;5101;49.038;8.710;2023-12-22T01:15:12;9.00;99.90
10123;DHT22;5101;49.038;8.710;2023-12-22T01:17:38;9.00;99.90
10123;DHT22;5101;49.038;8.710;2023-12-22T01:20:04;9.00;99.90
10123;DHT22;5101;49.038;8.710;2023-12-22T01:22:29;9.00;99.90
10123;DHT22;5101;49.038;8.710;2023-12-22T01:24:57;9.00;99.90
10123;DHT22;5101;49.038;8.710;2023-12-22T01:27:22;9.00;99.90
10123;DHT22;5101;49.038;8.710;2023-12-22T01:29:48;9.00;99.90
10123;DHT22;5101;49.038;8.710;2023-12-22T01:32:14;9.00;99.90
10123;DHT22;5101;49.038;8.710;2023-12-22T01:34:39;9.00;99.90
10123;DHT22;5101;49.038;8.710;2023-12-22T01:37:05;9.10;99.90
10123;DHT22;5101;49.038;8.710;2023-12-22T01:39:31;9.10;99.90
10123;DHT22;5101;49.038;8.710;2023-12-22T01:41:56;9.10;99.90
10123;DHT22;5101;49.038;8.710;2023-12-22T01:44:24;9.10;99.90
10123;DHT22;5101;49.038;8.710;2023-12-22T01:46:50;9.10;99.90
10123;DHT22;5101;49.038;8.710;2023-12-22T01:49:16;9.10;99.90
10123;DHT22;5101;49.038;8.710;2023-12-22T01:51:42;9.30;99.90
10123;DHT22;5101;49.038;8.710;2023-12-22T01:54:09;9.20;99.90
10123;DHT22;5101;49.038;8.710;2023-12-22T01:56:35;9.20;99.90
10123;DHT22;5101;49.038;8.710;2023-12-22T01:59:01;9.20;99.90
10123;DHT22;5101;49.038;8.710;2023-12-22T02:01:28;9.20;99.90
10123;DHT22;5101;49.038;8.710;2023-12-22T02:03:54;9.20;99.90
10123;DHT22;5101;49.038;8.710;2023-12-22T02:06:20;9.20;99.90
10123;DHT22;5101;49.038;8.710;2023-12-22T02:08:49;9.20;99.90
10123;DHT22;5101;49.038;8.710;2023-12-22T02:11:16;9.20;99.90
10123;DHT22;5101;49.038;8.710;2023-12-22T02:13:43;9.20;99.90
10123;DHT22;5101;49.038;8.710;2023-12-22T02:16:18;9.20;99.90
10123;DHT22;5101;49.038;8.710;2023-12-22T02:18:47;9.40;99.90
10123;DHT22;5101;49.038;8.710;2023-12-22T02:21:15;9.40;99.40
10123;DHT22;5101;49.038;8.710;2023-12-22T02:23:40;9.40;99.40
10123;DHT22;5101;49.038;8.710;2023-12-22T02:26:25;9.30;99.50
10123;DHT22;5101;49.038;8.710;2023-12-22T02:28:53;9.40;99.50
10123;DHT22;5101;49.038;8.710;2023-12-22T02:31:36;9.40;98.80
10123;DHT22;5101;49.038;8.710;2023-12-22T02:34:06;9.70;98.40
10123;DHT22;5101;49.038;8.710;2023-12-22T02:36:35;9.60;98.60
10123;DHT22;5101;49.038;8.710;2023-12-22T02:39:02;9.50;98.80
10123;DHT22;5101;49.038;8.710;2023-12-22T02:41:28;9.40;99.10
10123;DHT22;5101;49.038;8.710;2023-12-22T02:43:53;9.30;99.50
10123;DHT22;5101;49.038;8.710;2023-12-22T02:46:19;9.30;99.90
10123;DHT22;5101;49.038;8.710;2023-12-22T02:48:44;9.20;99.90
10123;DHT22;5101;49.038;8.710;2023-12-22T02:51:10;9.20;99.90
10123;DHT22;5101;49.038;8.710;2023-12-22T02:53:35;9.10;99.90
10123;DHT22;5101;49.038;8.710;2023-12-22T02:56:01;9.10;99.90
10123;DHT22;5101;49.038;8.710;2023-12-22T02:58:28;9.10;99.90
10123;DHT22;5101;49.038;8.710;2023-12-22T03:00:53;9.10;99.90
10123;DHT22;5101;49.038;8.710;2023-12-22T03:03:18;9.10;99.90
10123;DHT22;5101;49.038;8.710;2023-12-22T03:05:44;9.10;99.90
10123;DHT22;5101;49.038;8.710;2023-12-22T03:08:09;9.10;99.90
10123;DHT22;5101;49.038;8.710;2023-12-22T03:10:35;9.00;99.90
10123;DHT22;5101;49.038;8.710;2023-12-22T03:13:00;9.00;99.90
10123;DHT22;5101;49.038;8.710;2023-12-22T03:15:26;9.10;99.90
10123;DHT22;5101;49.038;8.710;2023-12-22T03:17:52;9.10;99.90
10123;DHT22;5101;49.038;8.710;2023-12-22T03:20:17;9.00;99.90
10123;DHT22;5101;49.038;8.710;2023-12-22T03:22:43;9.10;99.90
10123;DHT22;5101;49.038;8.710;2023-12-22T03:25:09;9.10;99.90
10123;DHT22;5101;49.038;8.710;2023-12-22T03:27:34;9.10;99.90
10123;DHT22;5101;49.038;8.710;2023-12-22T03:30:00;9.10;99.90
10123;DHT22;5101;49.038;8.710;2023-12-22T03:32:27;9.10;99.90
10123;DHT22;5101;49.038;8.710;2023-12-22T03:34:52;9.10;99.90
10123;DHT22;5101;49.038;8.710;2023-12-22T03:37:18;9.10;99.90
10123;DHT22;5101;49.038;8.710;2023-12-22T03:39:43;9.10;99.90
10123;DHT22;5101;49.038;8.710;2023-12-22T03:42:09;9.30;99.90
10123;DHT22;5101;49.038;8.710;2023-12-22T03:44:34;9.20;99.90
10123;DHT22;5101;49.038;8.710;2023-12-22T03:46:59;9.10;99.90
10123;DHT22;5101;49.038;8.710;2023-12-22T03:49:25;9.10;99.90
10123;DHT22;5101;49.038;8.710;2023-12-22T03:51:50;9.10;99.90
10123;DHT22;5101;49.038;8.710;2023-12-22T03:54:16;9.00;99.90
10123;DHT22;5101;49.038;8.710;2023-12-22T03:56:42;9.00;99.90
10123;DHT22;5101;49.038;8.710;2023-12-22T03:59:08;9.00;99.90
10123;DHT22;5101;49.038;8.710;2023-12-22T04:01:34;8.90;99.90
10123;DHT22;5101;49.038;8.710;2023-12-22T04:03:59;8.90;99.90
10123;DHT22;5101;49.038;8.710;2023-12-22T04:06:25;8.90;99.90
10123;DHT22;5101;49.038;8.710;2023-12-22T04:08:50;8.80;99.90
10123;DHT22;5101;49.038;8.710;2023-12-22T04:11:16;8.70;99.90
10123;DHT22;5101;49.038;8.710;2023-12-22T04:13:41;8.70;99.90
10123;DHT22;5101;49.038;8.710;2023-12-22T04:16:07;8.90;99.90
10123;DHT22;5101;49.038;8.710;2023-12-22T04:18:32;8.80;99.90
10123;DHT22;5101;49.038;8.710;2023-12-22T04:20:58;8.80;99.90
10123;DHT22;5101;49.038;8.710;2023-12-22T04:23:24;8.80;99.90
10123;DHT22;5101;49.038;8.710;2023-12-22T04:25:50;8.70;99.90
10123;DHT22;5101;49.038;8.710;2023-12-22T04:28:15;8.70;99.90
10123;DHT22;5101;49.038;8.710;2023-12-22T04:30:41;8.90;99.90
10123;DHT22;5101;49.038;8.710;2023-12-22T04:33:06;9.00;99.90
10123;DHT22;5101;49.038;8.710;2023-12-22T04:35:32;9.10;99.90
10123;DHT22;5101;49.038;8.710;2023-12-22T04:37:57;9.10;99.90
10123;DHT22;5101;49.038;8.710;2023-12-22T04:40:23;9.00;99.90
10123;DHT22;5101;49.038;8.710;2023-12-22T04:42:48;9.00;99.90
10123;DHT22;5101;49.038;8.710;2023-12-22T04:45:14;9.20;99.90
10123;DHT22;5101;49.038;8.710;2023-12-22T04:47:40;9.00;99.90
10123;DHT22;5101;49.038;8.710;2023-12-22T04:50:06;9.00;99.90
10123;DHT22;5101;49.038;8.710;2023-12-22T04:52:31;8.90;99.90
10123;DHT22;5101;49.038;8.710;2023-12-22T04:54:57;8.80;99.90
10123;DHT22;5101;49.038;8.710;2023-12-22T04:57:22;8.80;99.90
10123;DHT22;5101;49.038;8.710;2023-12-22T04:59:48;9.00;99.90
10123;DHT22;5101;49.038;8.710;2023-12-22T05:02:13;8.90;99.90
10123;DHT22;5101;49.038;8.710;2023-12-22T05:04:38;8.80;99.90
10123;DHT22;5101;49.038;8.710;2023-12-22T05:07:04;9.00;99.90
10123;DHT22;5101;49.038;8.710;2023-12-22T05:09:33;8.90;99.90
10123;DHT22;5101;49.038;8.710;2023-12-22T05:11:58;8.90;99.90
10123;DHT22;5101;49.038;8.710;2023-12-22T05:14:24;8.90;99.90
10123;DHT22;5101;49.038;8.710;2023-12-22T05:16:49;8.90;99.90
10123;DHT22;5101;49.038;8.710;2023-12-22T05:19:16;8.80;99.90
10123;DHT22;5101;49.038;8.710;2023-12-22T05:21:41;8.90;99.90
10123;DHT22;5101;49.038;8.710;2023-12-22T05:24:07;8.90;99.90
10123;DHT22;5101;49.038;8.710;2023-12-22T05:26:32;8.90;99.90
10123;DHT22;5101;49.038;8.710;2023-12-22T05:28:58;8.90;99.90
10123;DHT22;5101;49.038;8.710;2023-12-22T05:31:23;9.00;99.90
10123;DHT22;5101;49.038;8.710;2023-12-22T05:33:49;8.90;99.90
10123;DHT22;5101;49.038;8.710;2023-12-22T05:36:14;9.10;99.90
10123;DHT22;5101;49.038;8.710;2023-12-22T05:38:40;9.00;99.90
10123;DHT22;5101;49.038;8.710;2023-12-22T05:41:06;9.00;99.90
10123;DHT22;5101;49.038;8.710;2023-12-22T05:43:32;9.20;99.90
10123;DHT22;5101;49.038;8.710;2023-12-22T05:45:58;9.30;99.90
10123;DHT22;5101;49.038;8.710;2023-12-22T05:48:24;9.30;99.90
10123;DHT22;5101;49.038;8.710;2023-12-22T05:50:50;9.20;99.90
10123;DHT22;5101;49.038;8.710;2023-12-22T05:53:15;9.20;99.90
10123;DHT22;5101;49.038;8.710;2023-12-22T05:55:41;9.10;99.90
10123;DHT22;5101;49.038;8.710;2023-12-22T05:58:06;9.10;99.90
10123;DHT22;5101;49.038;8.710;2023-12-22T06:00:32;9.30;99.90
10123;DHT22;5101;49.038;8.710;2023-12-22T06:02:57;9.30;99.90
10123;DHT22;5101;49.038;8.710;2023-12-22T06:05:23;9.20;99.90
10123;DHT22;5101;49.038;8.710;2023-12-22T06:07:48;9.20;99.90
10123;DHT22;5101;49.038;8.710;2023-12-22T06:10:14;9.10;99.90
10123;DHT22;5101;49.038;8.710;2023-12-22T06:12:39;9.10;99.90
10123;DHT22;5101;49.038;8.710;2023-12-22T06:15:06;9.10;99.90
10123;DHT22;5101;49.038;8.710;2023-12-22T06:17:31;9.20;99.90
10123;DHT22;5101;49.038;8.710;2023-12-22T06:19:57;9.20;99.90
10123;DHT22;5101;49.038;8.710;2023-12-22T06:22:22;9.20;99.90
10123;DHT22;5101;49.038;8.710;2023-12-22T06:24:48;9.20;99.90
10123;DHT22;5101;49.038;8.710;2023-12-22T06:27:14;9.20;99.90
10123;DHT22;5101;49.038;8.710;2023-12-22T06:29:39;9.30;99.90
10123;DHT22;5101;49.038;8.710;2023-12-22T06:32:05;9.20;99.90
10123;DHT22;5101;49.038;8.710;2023-12-22T06:34:31;9.20;99.90
10123;DHT22;5101;49.038;8.710;2023-12-22T06:36:57;9.20;99.90
10123;DHT22;5101;49.038;8.710;2023-12-22T06:39:22;9.30;99.90
10123;DHT22;5101;49.038;8.710;2023-12-22T06:41:48;9.30;99.50
10123;DHT22;5101;49.038;8.710;2023-12-22T06:44:13;9.30;99.20
10123;DHT22;5101;49.038;8.710;2023-12-22T06:46:39;9.30;99.00
10123;DHT22;5101;49.038;8.710;2023-12-22T06:49:04;9.30;99.00
10123;DHT22;5101;49.038;8.710;2023-12-22T06:51:31;9.30;98.90
10123;DHT22;5101;49.038;8.710;2023-12-22T06:53:57;9.40;98.90
10123;DHT22;5101;49.038;8.710;2023-12-22T06:56:26;9.40;98.90
10123;DHT22;5101;49.038;8.710;2023-12-22T06:58:53;9.30;98.90
10123;DHT22;5101;49.038;8.710;2023-12-22T07:01:35;9.60;99.10
10123;DHT22;5101;49.038;8.710;2023-12-22T07:04:02;9.50;99.10
10123;DHT22;5101;49.038;8.710;2023-12-22T07:06:30;9.40;99.20
10123;DHT22;5101;49.038;8.710;2023-12-22T07:11:47;9.40;99.40
10123;DHT22;5101;49.038;8.710;2023-12-22T07:14:13;9.30;99.60
10123;DHT22;5101;49.038;8.710;2023-12-22T07:16:38;9.30;99.80
10123;DHT22;5101;49.038;8.710;2023-12-22T07:19:05;9.30;99.90
10123;DHT22;5101;49.038;8.710;2023-12-22T07:21:31;9.20;99.90
10123;DHT22;5101;49.038;8.710;2023-12-22T07:23:56;9.20;99.90
10123;DHT22;5101;49.038;8.710;2023-12-22T07:26:23;9.20;99.90
10123;DHT22;5101;49.038;8.710;2023-12-22T07:28:49;9.40;99.90
10123;DHT22;5101;49.038;8.710;2023-12-22T07:31:15;9.30;99.90
10123;DHT22;5101;49.038;8.710;2023-12-22T07:33:41;9.20;99.90
10123;DHT22;5101;49.038;8.710;2023-12-22T07:36:07;9.20;99.90
10123;DHT22;5101;49.038;8.710;2023-12-22T07:38:32;9.20;99.90
10123;DHT22;5101;49.038;8.710;2023-12-22T07:40:58;9.20;99.90
10123;DHT22;5101;49.038;8.710;2023-12-22T07:43:24;9.10;99.90
10123;DHT22;5101;49.038;8.710;2023-12-22T07:45:49;9.10;99.90
10123;DHT22;5101;49.038;8.710;2023-12-22T07:48:19;9.10;99.90
10123;DHT22;5101;49.038;8.710;2023-12-22T07:50:45;9.00;99.90
10123;DHT22;5101;49.038;8.710;2023-12-22T07:53:11;9.00;99.90
10123;DHT22;5101;49.038;8.710;2023-12-22T07:55:36;8.90;99.90
10123;DHT22;5101;49.038;8.710;2023-12-22T07:58:06;8.90;99.90
10123;DHT22;5101;49.038;8.710;2023-12-22T08:00:33;8.80;99.90
10123;DHT22;5101;49.038;8.710;2023-12-22T08:02:58;8.70;99.90
10123;DHT22;5101;49.038;8.710;2023-12-22T08:05:25;8.70;99.90
10123;DHT22;5101;49.038;8.710;2023-12-22T08:07:50;8.70;99.90
10123;DHT22;5101;49.038;8.710;2023-12-22T08:10:16;8.60;99.90
10123;DHT22;5101;49.038;8.710;2023-12-22T08:12:42;8.80;99.90
10123;DHT22;5101;49.038;8.710;2023-12-22T08:15:08;8.70;99.90
10123;DHT22;5101;49.038;8.710;2023-12-22T08:17:36;8.70;99.90
10123;DHT22;5101;49.038;8.710;2023-12-22T08:20:02;8.70;99.90
10123;DHT22;5101;49.038;8.710;2023-12-22T08:22:28;8.60;99.90
10123;DHT22;5101;49.038;8.710;2023-12-22T08:24:53;8.60;99.90
10123;DHT22;5101;49.038;8.710;2023-12-22T08:27:18;8.60;99.90
10123;DHT22;5101;49.038;8.710;2023-12-22T08:29:44;8.60;99.90
10123;DHT22;5101;49.038;8.710;2023-12-22T08:32:09;8.60;99.90
10123;DHT22;5101;49.038;8.710;2023-12-22T08:34:35;8.50;99.90
10123;DHT22;5101;49.038;8.710;2023-12-22T08:37:00;8.50;99.90
10123;DHT22;5101;49.038;8.710;2023-12-22T08:39:26;8.50;99.90
10123;DHT22;5101;49.038;8.710;2023-12-22T08:41:52;8.50;99.90
10123;DHT22;5101;49.038;8.710;2023-12-22T08:44:18;8.60;99.90
10123;DHT22;5101;49.038;8.710;2023-12-22T08:46:44;8.50;99.90
10123;DHT22;5101;49.038;8.710;2023-12-22T08:49:09;8.50;99.90
10123;DHT22;5101;49.038;8.710;2023-12-22T08:51:35;8.50;99.90
10123;DHT22;5101;49.038;8.710;2023-12-22T08:54:00;8.50;99.90
10123;DHT22;5101;49.038;8.710;2023-12-22T08:56:26;8.50;99.90
10123;DHT22;5101;49.038;8.710;2023-12-22T08:58:53;8.50;99.90
10123;DHT22;5101;49.038;8.710;2023-12-22T09:01:20;8.50;99.90
10123;DHT22;5101;49.038;8.710;2023-12-22T09:03:46;8.50;99.90
10123;DHT22;5101;49.038;8.710;2023-12-22T09:06:15;8.50;99.90
10123;DHT22;5101;49.038;8.710;2023-12-22T09:08:42;8.60;99.90
10123;DHT22;5101;49.038;8.710;2023-12-22T09:11:08;8.60;99.90
10123;DHT22;5101;49.038;8.710;2023-12-22T09:13:34;8.60;99.90
10123;DHT22;5101;49.038;8.710;2023-12-22T09:16:01;8.70;99.90
10123;DHT22;5101;49.038;8.710;2023-12-22T09:18:27;8.60;99.90
10123;DHT22;5101;49.038;8.710;2023-12-22T09:20:53;8.70;99.90
10123;DHT22;5101;49.038;8.710;2023-12-22T09:23:18;8.70;99.90
10123;DHT22;5101;49.038;8.710;2023-12-22T09:25:45;8.80;99.90
10123;DHT22;5101;49.038;8.710;2023-12-22T09:28:10;8.80;99.90
10123;DHT22;5101;49.038;8.710;2023-12-22T09:30:36;8.80;99.90
10123;DHT22;5101;49.038;8.710;2023-12-22T09:33:01;8.80;99.90
10123;DHT22;5101;49.038;8.710;2023-12-22T09:35:27;8.90;99.90
10123;DHT22;5101;49.038;8.710;2023-12-22T09:37:53;8.90;99.90
10123;DHT22;5101;49.038;8.710;2023-12-22T09:40:19;9.00;99.90
10123;DHT22;5101;49.038;8.710;2023-12-22T09:42:45;9.00;99.90
10123;DHT22;5101;49.038;8.710;2023-12-22T09:45:12;9.10;99.90
10123;DHT22;5101;49.038;8.710;2023-12-22T09:47:44;9.10;99.90
10123;DHT22;5101;49.038;8.710;2023-12-22T09:50:10;9.10;99.90
10123;DHT22;5101;49.038;8.710;2023-12-22T09:52:36;9.10;99.90
10123;DHT22;5101;49.038;8.710;2023-12-22T09:55:03;9.20;99.90
10123;DHT22;5101;49.038;8.710;2023-12-22T09:57:30;9.20;99.90
10123;DHT22;5101;49.038;8.710;2023-12-22T09:59:57;9.20;99.90
10123;DHT22;5101;49.038;8.710;2023-12-22T10:02:25;9.30;99.90
10123;DHT22;5101;49.038;8.710;2023-12-22T10:04:52;9.30;99.90
10123;DHT22;5101;49.038;8.710;2023-12-22T10:07:17;9.30;99.90
10123;DHT22;5101;49.038;8.710;2023-12-22T10:09:44;9.30;99.90
10123;DHT22;5101;49.038;8.710;2023-12-22T10:12:13;9.30;99.90
10123;DHT22;5101;49.038;8.710;2023-12-22T10:14:40;9.40;99.90
10123;DHT22;5101;49.038;8.710;2023-12-22T10:17:05;9.40;99.90
10123;DHT22;5101;49.038;8.710;2023-12-22T10:19:31;9.40;99.90
10123;DHT22;5101;49.038;8.710;2023-12-22T10:21:56;9.50;99.90
10123;DHT22;5101;49.038;8.710;2023-12-22T10:24:42;9.50;99.90
10123;DHT22;5101;49.038;8.710;2023-12-22T10:27:08;9.50;99.90
10123;DHT22;5101;49.038;8.710;2023-12-22T10:29:34;9.50;99.90
10123;DHT22;5101;49.038;8.710;2023-12-22T10:32:04;9.60;99.90
10123;DHT22;5101;49.038;8.710;2023-12-22T10:34:30;9.60;99.90
10123;DHT22;5101;49.038;8.710;2023-12-22T10:36:57;9.50;99.90
10123;DHT22;5101;49.038;8.710;2023-12-22T10:39:22;9.60;99.90
10123;DHT22;5101;49.038;8.710;2023-12-22T10:41:48;9.50;99.90
10123;DHT22;5101;49.038;8.710;2023-12-22T10:44:17;9.50;99.90
10123;DHT22;5101;49.038;8.710;2023-12-22T10:46:43;9.50;99.90
10123;DHT22;5101;49.038;8.710;2023-12-22T10:49:09;9.50;99.90
10123;DHT22;5101;49.038;8.710;2023-12-22T10:51:34;9.50;99.90
10123;DHT22;5101;49.038;8.710;2023-12-22T10:54:00;9.50;99.90
10123;DHT22;5101;49.038;8.710;2023-12-22T10:56:25;9.60;99.90
10123;DHT22;5101;49.038;8.710;2023-12-22T10:58:52;9.50;99.90
10123;DHT22;5101;49.038;8.710;2023-12-22T11:01:21;9.50;99.90
10123;DHT22;5101;49.038;8.710;2023-12-22T11:03:50;9.40;99.90
10123;DHT22;5101;49.038;8.710;2023-12-22T11:06:16;9.60;99.90
10123;DHT22;5101;49.038;8.710;2023-12-22T11:08:43;9.50;99.90
10123;DHT22;5101;49.038;8.710;2023-12-22T11:11:15;9.60;99.90
10123;DHT22;5101;49.038;8.710;2023-12-22T11:13:42;9.70;99.90
10123;DHT22;5101;49.038;8.710;2023-12-22T11:16:09;9.50;99.90
10123;DHT22;5101;49.038;8.710;2023-12-22T11:18:35;9.60;99.90
10123;DHT22;5101;49.038;8.710;2023-12-22T11:21:04;9.70;99.90
10123;DHT22;5101;49.038;8.710;2023-12-22T11:23:31;9.70;99.90
10123;DHT22;5101;49.038;8.710;2023-12-22T11:25:59;9.80;99.90
10123;DHT22;5101;49.038;8.710;2023-12-22T11:28:26;9.60;99.90
10123;DHT22;5101;49.038;8.710;2023-12-22T11:30:52;9.50;99.90
10123;DHT22;5101;49.038;8.710;2023-12-22T11:33:20;9.50;99.90
10123;DHT22;5101;49.038;8.710;2023-12-22T11:35:46;9.40;99.90
10123;DHT22;5101;49.038;8.710;2023-12-22T11:38:13;9.40;99.90
10123;DHT22;5101;49.038;8.710;2023-12-22T11:40:39;9.30;99.90
10123;DHT22;5101;49.038;8.710;2023-12-22T11:43:06;9.30;99.90
10123;DHT22;5101;49.038;8.710;2023-12-22T11:45:32;9.30;99.90
10123;DHT22;5101;49.038;8.710;2023-12-22T11:48:08;9.20;99.90
10123;DHT22;5101;49.038;8.710;2023-12-22T11:50:34;9.20;99.90
10123;DHT22;5101;49.038;8.710;2023-12-22T11:53:25;9.20;99.90
10123;DHT22;5101;49.038;8.710;2023-12-22T11:58:46;9.20;99.90
10123;DHT22;5101;49.038;8.710;2023-12-22T12:01:17;9.20;99.90
10123;DHT22;5101;49.038;8.710;2023-12-22T12:03:53;9.40;99.90
10123;DHT22;5101;49.038;8.710;2023-12-22T12:06:30;9.30;99.90
10123;DHT22;5101;49.038;8.710;2023-12-22T12:08:57;9.30;99.90
10123;DHT22;5101;49.038;8.710;2023-12-22T12:11:24;9.30;99.90
10123;DHT22;5101;49.038;8.710;2023-12-22T12:14:09;9.30;99.90
10123;DHT22;5101;49.038;8.710;2023-12-22T12:16:39;9.30;99.90
10123;DHT22;5101;49.038;8.710;2023-12-22T12:19:08;9.30;99.90
10123;DHT22;5101;49.038;8.710;2023-12-22T12:21:34;9.20;99.90
10123;DHT22;5101;49.038;8.710;2023-12-22T12:23:59;9.20;99.90
10123;DHT22;5101;49.038;8.710;2023-12-22T12:26:25;9.30;99.90
10123;DHT22;5101;49.038;8.710;2023-12-22T12:28:51;9.50;99.90
10123;DHT22;5101;49.038;8.710;2023-12-22T12:31:17;9.40;99.90
10123;DHT22;5101;49.038;8.710;2023-12-22T12:33:44;9.40;99.90
10123;DHT22;5101;49.038;8.710;2023-12-22T12:36:11;9.50;99.90
10123;DHT22;5101;49.038;8.710;2023-12-22T12:38:48;9.40;99.90
10123;DHT22;5101;49.038;8.710;2023-12-22T12:41:18;9.50;99.90
10123;DHT22;5101;49.038;8.710;2023-12-22T12:43:49;9.40;99.90
10123;DHT22;5101;49.038;8.710;2023-12-22T12:46:16;9.40;99.90
10123;DHT22;5101;49.038;8.710;2023-12-22T12:48:42;9.40;99.90
10123;DHT22;5101;49.038;8.710;2023-12-22T12:51:07;9.50;99.90
10123;DHT22;5101;49.038;8.710;2023-12-22T12:53:33;9.50;99.90
10123;DHT22;5101;49.038;8.710;2023-12-22T12:56:01;9.50;99.90
10123;DHT22;5101;49.038;8.710;2023-12-22T12:58:31;9.50;99.90
10123;DHT22;5101;49.038;8.710;2023-12-22T13:01:09;9.50;99.90
10123;DHT22;5101;49.038;8.710;2023-12-22T13:03:54;9.70;99.90
10123;DHT22;5101;49.038;8.710;2023-12-22T13:06:20;9.60;99.90
10123;DHT22;5101;49.038;8.710;2023-12-22T13:08:52;9.70;99.90
10123;DHT22;5101;49.038;8.710;2023-12-22T13:11:26;9.70;99.90
10123;DHT22;5101;49.038;8.710;2023-12-22T13:13:52;9.60;99.90
10123;DHT22;5101;49.038;8.710;2023-12-22T13:16:22;9.60;99.90
10123;DHT22;5101;49.038;8.710;2023-12-22T13:18:51;9.60;99.90
10123;DHT22;5101;49.038;8.710;2023-12-22T13:21:16;9.60;99.90
10123;DHT22;5101;49.038;8.710;2023-12-22T13:23:42;9.60;99.90
10123;DHT22;5101;49.038;8.710;2023-12-22T13:26:18;9.80;99.90
10123;DHT22;5101;49.038;8.710;2023-12-22T13:28:44;9.70;99.90
10123;DHT22;5101;49.038;8.710;2023-12-22T13:31:13;9.70;99.90
10123;DHT22;5101;49.038;8.710;2023-12-22T13:33:40;9.70;99.90
10123;DHT22;5101;49.038;8.710;2023-12-22T13:36:06;9.70;99.90
10123;DHT22;5101;49.038;8.710;2023-12-22T13:38:32;9.70;99.90
10123;DHT22;5101;49.038;8.710;2023-12-22T13:40:58;9.70;99.90
10123;DHT22;5101;49.038;8.710;2023-12-22T13:43:30;9.70;99.90
10123;DHT22;5101;49.038;8.710;2023-12-22T13:45:56;9.70;99.90
10123;DHT22;5101;49.038;8.710;2023-12-22T13:48:22;9.70;99.90
10123;DHT22;5101;49.038;8.710;2023-12-22T13:50:58;9.70;99.90
10123;DHT22;5101;49.038;8.710;2023-12-22T13:53:24;9.70;99.90
10123;DHT22;5101;49.038;8.710;2023-12-22T13:55:57;9.70;99.90
10123;DHT22;5101;49.038;8.710;2023-12-22T13:58:23;9.80;99.90
10123;DHT22;5101;49.038;8.710;2023-12-22T14:00:49;9.80;99.90
10123;DHT22;5101;49.038;8.710;2023-12-22T14:03:15;9.80;99.90
10123;DHT22;5101;49.038;8.710;2023-12-22T14:05:48;9.80;99.90
10123;DHT22;5101;49.038;8.710;2023-12-22T14:08:15;9.80;99.90
10123;DHT22;5101;49.038;8.710;2023-12-22T14:10:48;9.80;99.90
10123;DHT22;5101;49.038;8.710;2023-12-22T14:13:17;9.90;99.90
10123;DHT22;5101;49.038;8.710;2023-12-22T14:15:43;9.90;99.90
10123;DHT22;5101;49.038;8.710;2023-12-22T14:18:09;9.90;99.90
10123;DHT22;5101;49.038;8.710;2023-12-22T14:20:35;9.90;99.90
10123;DHT22;5101;49.038;8.710;2023-12-22T14:23:01;9.90;99.90
10123;DHT22;5101;49.038;8.710;2023-12-22T14:25:26;9.90;99.90
10123;DHT22;5101;49.038;8.710;2023-12-22T14:27:52;9.90;99.90
10123;DHT22;5101;49.038;8.710;2023-12-22T14:30:23;10.10;99.90
10123;DHT22;5101;49.038;8.710;2023-12-22T14:32:48;10.10;99.90
10123;DHT22;5101;49.038;8.710;2023-12-22T14:35:14;10.10;99.90
10123;DHT22;5101;49.038;8.710;2023-12-22T14:37:39;10.10;99.90
10123;DHT22;5101;49.038;8.710;2023-12-22T14:40:05;10.10;99.90
10123;DHT22;5101;49.038;8.710;2023-12-22T14:42:32;10.10;99.90
10123;DHT22;5101;49.038;8.710;2023-12-22T14:44:57;10.10;99.90
10123;DHT22;5101;49.038;8.710;2023-12-22T14:47:23;10.10;99.90
10123;DHT22;5101;49.038;8.710;2023-12-22T14:49:49;10.10;99.90
10123;DHT22;5101;49.038;8.710;2023-12-22T14:52:14;10.10;99.90
10123;DHT22;5101;49.038;8.710;2023-12-22T14:54:40;10.20;99.90
10123;DHT22;5101;49.038;8.710;2023-12-22T14:57:06;10.10;99.90
10123;DHT22;5101;49.038;8.710;2023-12-22T14:59:31;10.20;99.90
10123;DHT22;5101;49.038;8.710;2023-12-22T15:01:57;10.40;99.90
10123;DHT22;5101;49.038;8.710;2023-12-22T15:04:22;10.30;99.90
10123;DHT22;5101;49.038;8.710;2023-12-22T15:06:48;10.20;99.90
10123;DHT22;5101;49.038;8.710;2023-12-22T15:09:15;10.30;99.90
10123;DHT22;5101;49.038;8.710;2023-12-22T15:11:44;10.30;99.90
10123;DHT22;5101;49.038;8.710;2023-12-22T15:14:11;10.30;99.90
10123;DHT22;5101;49.038;8.710;2023-12-22T15:16:41;10.30;99.90
10123;DHT22;5101;49.038;8.710;2023-12-22T15:19:06;10.30;99.90
10123;DHT22;5101;49.038;8.710;2023-12-22T15:21:32;10.20;99.90
10123;DHT22;5101;49.038;8.710;2023-12-22T15:23:57;10.30;99.90
10123;DHT22;5101;49.038;8.710;2023-12-22T15:26:23;10.30;99.90
10123;DHT22;5101;49.038;8.710;2023-12-22T15:28:51;10.30;99.90
10123;DHT22;5101;49.038;8.710;2023-12-22T15:31:16;10.40;99.90
10123;DHT22;5101;49.038;8.710;2023-12-22T15:33:42;10.30;99.90
10123;DHT22;5101;49.038;8.710;2023-12-22T15:36:07;10.30;99.90
10123;DHT22;5101;49.038;8.710;2023-12-22T15:38:33;10.30;99.90
10123;DHT22;5101;49.038;8.710;2023-12-22T15:41:02;10.30;99.90
10123;DHT22;5101;49.038;8.710;2023-12-22T15:43:27;10.30;99.90
10123;DHT22;5101;49.038;8.710;2023-12-22T15:45:53;10.30;99.90
10123;DHT22;5101;49.038;8.710;2023-12-22T15:48:18;10.40;99.90
10123;DHT22;5101;49.038;8.710;2023-12-22T15:50:44;10.40;99.90
10123;DHT22;5101;49.038;8.710;2023-12-22T15:53:11;10.40;99.90
10123;DHT22;5101;49.038;8.710;2023-12-22T15:55:37;10.40;99.90
10123;DHT22;5101;49.038;8.710;2023-12-22T15:58:02;10.40;99.90
10123;DHT22;5101;49.038;8.710;2023-12-22T16:00:28;10.40;99.90
10123;DHT22;5101;49.038;8.710;2023-12-22T16:02:53;10.40;99.90